Impacts METAR Board INFO
IDs:

KSLC - Salt Lake City Intl, UT, US

Updated at: 2144 UTC 12 Dec 2017
Potential Impact None Slight Moderate High
Time12/09Z 12/10Z 12/11Z 12/12Z 12/13Z 12/14Z 12/15Z 12/16Z 12/17Z 12/18Z 12/19Z 12/20Z 12/21Z
VIS0.25 0.25 0.25 0.25 0.25 0.25 0.25 0.25 0.25 0.25 0.5 1.25 1.25
CIG5 2 4 3 3 5 2 5 5 6 3 4 5
CoverOVCOVXOVXOVCOVCOVCOVXOVCOVCOVCOVCOVCOVC
FltCatLIFRLIFRLIFRLIFRLIFRLIFRLIFRLIFRLIFRLIFRLIFRLIFRIFR
WXFZFGFZFGFZFGFZFG-SN BR-SN BRFZFG-SN FZFG-SN BRBRBR-SN BR-SN BR
WDir035021000320000000360
WSpd0 3 3 0 0 3 0 0 0 0 0 0 3
WGst-- -- -- -- -- -- -- -- -- -- -- -- --
Raw hourly METARs
KSLC 120854Z 00000KT 1/4SM R16L/1200V1800FT FZFG OVC005 M04/M05 A3061 RMK AO2 SNE30 SLP393 P0000 60001 T10391050 53001 VISNO NW RNWY $
KSLC 120954Z 35003KT 1/4SM R16L/1200V1400FT FZFG VV002 M04/M04 A3062 RMK AO2 SLP394 T10391044 VISNO NW RNWY $
KSLC 121054Z 21003KT 1/4SM R16L/1800V2600FT FZFG VV004 M04/M06 A3061 RMK AO2 SNB25E47 SLP397 P0000 T10441056 VISNO NW RNWY $
KSLC 121154Z 00000KT 1/4SM R16L/2000VP6000FT FZFG OVC003 M04/M05 A3060 RMK AO2 SNB10E35 SLP390 P0000 60001 70002 T10441050 11033 21044 58004 VISNO NW RNWY $
KSLC 121254Z 00000KT 1/4SM R16L/P6000FT -SN BR OVC003 M04/M06 A3059 RMK AO2 SFC VIS 1 SNB46 SLP389 P0000 T10441056 VISNO NW RNWY $
KSLC 121354Z 32003KT 1/4SM R16L/4000VP6000FT -SN BR OVC005 M04/M06 A3059 RMK AO2 SFC VIS 1 SNE04B30 SLP389 P0001 T10441056 VISNO NW RNWY $
KSLC 121505Z 00000KT 1/4SM R16L/1200V1600FT FZFG VV002 M04/M05 A3060 RMK AO2 SFC VIS 1/2 T10441050 VISNO NW RNWY
KSLC 121554Z 00000KT 1/4SM R16L/2400VP6000FT -SN FZFG OVC005 M04/M06 A3061 RMK AO2 SFC VIS 1/2 SNB38 SLP395 P0000 T10441056 VISNO NW RNWY
KSLC 121654Z 00000KT 1/4SM R16L/2800V4500FT -SN BR OVC005 M04/M05 A3061 RMK AO2 SFC VIS 1 SNE02B49 SLP397 P0000 T10391050 VISNO NW RNWY
KSLC 121754Z 00000KT 1/4SM R16L/5500VP6000FT BR OVC006 M04/M06 A3061 RMK AO2 SFC VIS 1 1/4 SNE10 SLP398 P0000 60001 T10441056 11039 21044 50001 VISNO NW RNWY
KSLC 121854Z 00000KT 1/2SM R16L/4000VP6000FT BR OVC003 M04/M05 A3059 RMK AO2 SFC VIS 1 SLP390 T10441050 VISNO NW RNWY
KSLC 121954Z 00000KT 1 1/4SM -SN BR OVC004 M04/M05 A3054 RMK AO2 SFC VIS 2 1/2 SNB54 SLP373 P0000 T10441050 VISNO NW RNWY
KSLC 122054Z 36003KT 1 1/4SM -SN BR OVC005 M03/M04 A3050 RMK AO2 SFC VIS 2 SNE04B51 SLP357 P0000 60000 T10281044 58033 VISNO NW RNWY